createdAt,value
2023-03-17T00:01:34.082Z,100953.06
2023-03-17T00:04:01.525Z,100956.40
2023-03-17T00:06:32.038Z,100955.23
2023-03-17T00:08:59.175Z,100958.72
2023-03-17T00:11:29.814Z,100959.47
2023-03-17T00:13:59.374Z,100965.89
2023-03-17T00:16:28.436Z,100959.13
2023-03-17T00:18:56.782Z,100958.06
2023-03-17T00:21:29.252Z,100954.31
2023-03-17T00:24:07.485Z,100954.12
2023-03-17T00:26:38.005Z,100944.16
2023-03-17T00:29:06.011Z,100938.63
2023-03-17T00:31:35.258Z,100944.07
2023-03-17T00:34:16.814Z,100936.31
2023-03-17T00:36:45.967Z,100941.27
2023-03-17T00:41:42.512Z,100942.14
2023-03-17T00:44:12.860Z,100934.11
2023-03-17T00:46:50.863Z,100929.84
2023-03-17T00:49:22.157Z,100927.60
2023-03-17T00:51:49.873Z,100928.63
2023-03-17T00:54:18.235Z,100927.60
2023-03-17T00:56:46.517Z,100923.66
2023-03-17T00:59:25.425Z,100921.77
2023-03-17T01:01:52.626Z,100922.94
2023-03-17T01:04:24.080Z,100921.83
2023-03-17T01:06:53.298Z,100917.98
2023-03-17T01:09:21.508Z,100920.85
2023-03-17T01:11:51.924Z,100919.27
2023-03-17T01:14:19.586Z,100914.95
2023-03-17T01:16:47.881Z,100911.27
2023-03-17T01:19:17.075Z,100908.56
2023-03-17T01:21:44.605Z,100909.02
2023-03-17T01:24:21.728Z,100905.70
2023-03-17T01:26:51.089Z,100901.17
2023-03-17T01:29:27.164Z,100905.25
2023-03-17T01:31:56.910Z,100901.19
2023-03-17T01:34:24.055Z,100901.45
2023-03-17T01:36:51.170Z,100900.86
2023-03-17T01:39:20.948Z,100901.62
2023-03-17T01:41:47.874Z,100906.44
2023-03-17T01:44:20.775Z,100908.52
2023-03-17T01:46:49.589Z,100907.23
2023-03-17T01:49:33.167Z,100910.00
2023-03-17T01:52:09.590Z,100911.95
2023-03-17T01:54:43.791Z,100911.70
2023-03-17T01:57:18.043Z,100915.38
2023-03-17T01:59:56.589Z,100914.97
2023-03-17T02:02:32.004Z,100914.73
2023-03-17T02:05:22.216Z,100914.72
2023-03-17T02:08:00.908Z,100912.83
2023-03-17T02:10:35.519Z,100910.55
2023-03-17T02:13:17.009Z,100914.12
2023-03-17T02:15:54.650Z,100913.95
2023-03-17T02:18:34.885Z,100918.55
2023-03-17T02:21:35.601Z,100920.38
2023-03-17T02:24:21.834Z,100921.11
2023-03-17T02:26:54.668Z,100920.20
2023-03-17T02:29:37.995Z,100921.70
2023-03-17T02:32:19.465Z,100925.70
2023-03-17T02:35:08.587Z,100923.42
2023-03-17T02:37:37.342Z,100924.45
2023-03-17T02:40:25.546Z,100924.44
2023-03-17T02:42:54.137Z,100925.62
2023-03-17T02:45:32.462Z,100923.91
2023-03-17T02:48:20.235Z,100927.48
2023-03-17T02:51:08.118Z,100928.98
2023-03-17T02:53:37.939Z,100931.84
2023-03-17T02:56:05.635Z,100930.45
2023-03-17T02:58:32.722Z,100937.58
2023-03-17T03:00:59.968Z,100937.39
2023-03-17T03:03:27.637Z,100936.11
2023-03-17T03:05:54.849Z,100940.46
2023-03-17T03:08:22.140Z,100946.19
2023-03-17T03:10:49.247Z,100951.59
2023-03-17T03:13:27.164Z,100954.59
2023-03-17T03:16:14.647Z,100955.03
2023-03-17T03:18:41.883Z,100959.13
2023-03-17T03:21:09.707Z,100957.77
2023-03-17T03:23:39.626Z,100967.33
2023-03-17T03:26:07.849Z,100970.10
2023-03-17T03:28:37.763Z,100969.80
2023-03-17T03:31:08.597Z,100966.77
2023-03-17T03:33:38.856Z,100964.79
2023-03-17T03:36:17.505Z,100966.04
2023-03-17T03:38:58.756Z,100968.27
2023-03-17T03:41:33.163Z,100974.09
2023-03-17T03:44:14.086Z,100973.23
2023-03-17T03:46:52.322Z,100974.61
2023-03-17T03:49:27.125Z,100971.02
2023-03-17T03:52:14.499Z,100973.01
2023-03-17T03:54:43.578Z,100969.71
2023-03-17T03:57:10.791Z,100959.27
2023-03-17T03:59:41.297Z,100958.56
2023-03-17T04:02:09.555Z,100961.25
2023-03-17T04:04:57.956Z,100960.50
2023-03-17T04:07:33.907Z,100954.14
2023-03-17T04:10:01.100Z,100953.55
2023-03-17T04:12:48.136Z,100952.30
2023-03-17T04:15:20.707Z,100948.50
2023-03-17T04:17:55.070Z,100950.34
2023-03-17T04:20:42.558Z,100954.27
2023-03-17T04:23:31.630Z,100958.84
2023-03-17T04:26:10.364Z,100960.73
2023-03-17T04:28:57.669Z,100962.75
2023-03-17T04:31:39.800Z,100970.08
2023-03-17T04:34:19.546Z,100970.70
2023-03-17T04:37:07.470Z,100964.23
2023-03-17T04:39:38.165Z,100961.34
2023-03-17T04:42:14.810Z,100973.63
2023-03-17T04:45:02.071Z,100978.07
2023-03-17T04:47:50.059Z,100973.45
2023-03-17T04:50:37.400Z,100977.37
2023-03-17T04:53:14.738Z,100977.02
2023-03-17T04:55:54.606Z,100971.55
2023-03-17T04:58:42.051Z,100960.02
2023-03-17T05:01:29.438Z,100953.81
2023-03-17T05:04:30.717Z,100953.35
2023-03-17T05:07:18.858Z,100957.49
2023-03-17T05:10:08.001Z,100963.55
2023-03-17T05:12:45.345Z,100963.19
2023-03-17T05:15:33.711Z,100964.95
2023-03-17T05:18:15.000Z,100981.96
2023-03-17T05:21:02.888Z,100986.27
2023-03-17T05:23:43.073Z,100988.60
2023-03-17T05:26:30.611Z,100990.49
2023-03-17T05:29:18.024Z,100988.06
2023-03-17T05:31:59.480Z,100995.60
2023-03-17T05:34:46.509Z,100988.73
2023-03-17T05:37:27.406Z,100993.61
2023-03-17T05:39:57.884Z,100988.33
2023-03-17T05:42:45.593Z,100983.73
2023-03-17T05:45:14.415Z,100990.79
2023-03-17T05:47:44.893Z,100990.56
2023-03-17T05:50:14.103Z,100991.59
2023-03-17T05:52:44.225Z,100989.95
2023-03-17T05:55:12.606Z,100984.59
2023-03-17T05:57:39.753Z,100980.22
2023-03-17T06:00:08.649Z,100977.98
2023-03-17T06:02:36.442Z,100979.92
2023-03-17T06:05:03.891Z,100975.35
2023-03-17T06:07:44.582Z,100970.73
2023-03-17T06:10:18.013Z,100963.79
2023-03-17T06:12:45.076Z,100959.59
2023-03-17T06:15:13.062Z,100954.63
2023-03-17T06:17:40.313Z,100947.92
2023-03-17T06:20:09.216Z,100949.27
2023-03-17T06:22:37.421Z,100947.77
2023-03-17T06:25:05.602Z,100951.16
2023-03-17T06:27:32.990Z,100958.30
2023-03-17T06:30:00.377Z,100957.08
2023-03-17T06:32:28.388Z,100955.19
2023-03-17T06:34:55.611Z,100963.27
2023-03-17T06:37:22.719Z,100958.33
2023-03-17T06:39:50.106Z,100959.27
2023-03-17T06:42:17.912Z,100967.05
2023-03-17T06:44:45.379Z,100971.34
2023-03-17T06:47:12.792Z,100975.95
2023-03-17T06:49:39.847Z,100980.38
2023-03-17T06:52:08.870Z,100983.88
2023-03-17T06:54:36.717Z,100979.38
2023-03-17T06:57:03.911Z,100973.09
2023-03-17T06:59:31.476Z,100970.20
2023-03-17T07:01:59.160Z,100970.81
2023-03-17T07:04:26.564Z,100978.33
2023-03-17T07:06:53.698Z,100977.83
2023-03-17T07:09:22.307Z,100974.86
2023-03-17T07:11:49.739Z,100975.59
2023-03-17T07:14:17.193Z,100965.04
2023-03-17T07:16:45.236Z,100964.55
2023-03-17T07:19:12.511Z,100971.61
2023-03-17T07:21:39.812Z,100964.88
2023-03-17T07:24:07.390Z,100960.25
2023-03-17T07:26:34.654Z,100960.66
2023-03-17T07:29:02.545Z,100968.27
2023-03-17T07:31:29.846Z,100968.77
2023-03-17T07:33:58.251Z,100964.50
2023-03-17T07:36:25.679Z,100959.00
2023-03-17T07:38:52.770Z,100955.55
2023-03-17T07:41:20.756Z,100951.02
2023-03-17T07:43:47.784Z,100953.77
2023-03-17T07:46:15.252Z,100943.48
2023-03-17T07:48:44.175Z,100945.67
2023-03-17T07:51:15.018Z,100946.41
2023-03-17T07:53:42.782Z,100950.08
2023-03-17T07:56:11.808Z,100950.73
2023-03-17T07:58:38.870Z,100941.87
2023-03-17T08:03:49.706Z,100943.61
2023-03-17T08:06:17.040Z,100942.35
2023-03-17T08:08:44.195Z,100943.82
2023-03-17T08:11:12.516Z,100947.92
2023-03-17T08:13:39.875Z,100945.28
2023-03-17T08:16:08.318Z,100941.99
2023-03-17T08:18:35.434Z,100938.52
2023-03-17T08:21:03.000Z,100942.79
2023-03-17T08:23:30.140Z,100941.54
2023-03-17T08:26:02.113Z,100946.17
2023-03-17T08:28:31.579Z,100955.59
2023-03-17T08:31:12.215Z,100963.05
2023-03-17T08:33:40.026Z,100944.86
2023-03-17T08:36:12.950Z,100962.06
2023-03-17T08:38:41.627Z,100957.92
2023-03-17T08:41:12.385Z,100964.14
2023-03-17T08:43:40.512Z,100968.34
2023-03-17T08:46:10.294Z,100978.02
2023-03-17T08:48:38.210Z,100981.09
2023-03-17T08:51:06.064Z,100982.80
2023-03-17T08:53:35.226Z,100981.03
2023-03-17T08:56:03.937Z,100978.16
2023-03-17T08:58:31.718Z,100981.59
2023-03-17T09:01:01.761Z,100985.22
2023-03-17T09:03:50.198Z,100975.58
2023-03-17T09:06:18.231Z,100971.47
2023-03-17T09:08:47.760Z,100982.37
2023-03-17T09:11:17.866Z,100983.63
2023-03-17T09:13:46.589Z,100979.96
2023-03-17T09:16:14.635Z,100982.21
2023-03-17T09:18:42.257Z,100978.79
2023-03-17T09:21:11.957Z,100978.79
2023-03-17T09:23:39.239Z,100968.84
2023-03-17T09:26:07.005Z,100975.02
2023-03-17T09:28:34.200Z,100974.54
2023-03-17T09:31:02.710Z,100973.89
2023-03-17T09:33:31.108Z,100964.59
2023-03-17T09:35:58.634Z,100961.52
2023-03-17T09:38:26.450Z,100971.69
2023-03-17T09:40:58.910Z,100958.27
2023-03-17T09:43:37.246Z,100958.04
2023-03-17T09:46:22.549Z,100955.43
2023-03-17T09:48:55.539Z,100954.59
2023-03-17T09:51:23.102Z,100940.45
2023-03-17T09:53:55.684Z,100938.08
2023-03-17T09:56:24.896Z,100939.34
2023-03-17T09:58:55.613Z,100928.21
2023-03-17T10:01:23.583Z,100933.67
2023-03-17T10:03:51.792Z,100923.02
2023-03-17T10:06:37.760Z,100917.56
2023-03-17T10:09:14.380Z,100919.45
2023-03-17T10:11:44.420Z,100910.06
2023-03-17T10:14:27.373Z,100917.73
2023-03-17T10:16:59.357Z,100913.15
2023-03-17T10:19:32.144Z,100910.36
2023-03-17T10:22:04.278Z,100914.80
2023-03-17T10:24:34.194Z,100908.29
2023-03-17T10:27:04.757Z,100901.20
2023-03-17T10:29:32.742Z,100915.11
2023-03-17T10:32:00.252Z,100911.16
2023-03-17T10:34:33.075Z,100901.20
2023-03-17T10:37:05.925Z,100901.48
2023-03-17T10:39:33.827Z,100895.16
2023-03-17T10:42:09.233Z,100910.23
2023-03-17T10:44:49.810Z,100893.42
2023-03-17T10:47:46.064Z,100888.89
2023-03-17T10:50:25.386Z,100893.52
2023-03-17T10:52:58.091Z,100902.87
2023-03-17T10:55:29.458Z,100890.59
2023-03-17T10:58:05.080Z,100901.75
2023-03-17T11:00:38.753Z,100890.77
2023-03-17T11:03:16.831Z,100906.93
2023-03-17T11:05:58.074Z,100899.65
2023-03-17T11:08:25.846Z,100906.05
2023-03-17T11:10:58.603Z,100895.55
2023-03-17T11:13:31.863Z,100891.01
2023-03-17T11:16:22.191Z,100895.98
2023-03-17T11:18:55.958Z,100886.26
2023-03-17T11:21:31.359Z,100889.83
2023-03-17T11:24:09.616Z,100888.14
2023-03-17T11:26:57.614Z,100883.48
2023-03-17T11:29:54.805Z,100877.45
2023-03-17T11:32:37.059Z,100879.79
2023-03-17T11:35:36.315Z,100859.33
2023-03-17T11:38:24.564Z,100848.99
2023-03-17T11:41:33.068Z,100853.05
2023-03-17T11:44:37.432Z,100850.39
2023-03-17T11:47:10.295Z,100852.83
2023-03-17T11:50:09.712Z,100846.60
2023-03-17T11:53:09.924Z,100834.55
2023-03-17T11:55:47.394Z,100823.64
2023-03-17T11:58:20.984Z,100813.62
2023-03-17T12:01:12.588Z,100807.41
2023-03-17T12:03:46.910Z,100808.95
2023-03-17T12:06:20.748Z,100815.06
2023-03-17T12:08:56.298Z,100834.50
2023-03-17T12:11:38.209Z,100812.70
2023-03-17T12:14:08.215Z,100808.84
2023-03-17T12:16:52.737Z,100808.20
2023-03-17T12:19:46.458Z,100805.42
2023-03-17T12:22:39.324Z,100807.30
2023-03-17T12:25:16.608Z,100799.23
2023-03-17T12:27:56.427Z,100815.43
2023-03-17T12:30:33.056Z,100821.48
2023-03-17T12:33:08.030Z,100806.85
2023-03-17T12:35:38.732Z,100807.35
2023-03-17T12:38:12.989Z,100812.48
2023-03-17T12:40:55.557Z,100815.39
2023-03-17T12:43:46.915Z,100814.52
2023-03-17T12:46:52.425Z,100817.20
2023-03-17T12:49:42.300Z,100807.03
2023-03-17T12:52:50.709Z,100801.83
2023-03-17T12:55:32.552Z,100805.17
2023-03-17T12:58:05.718Z,100800.45
2023-03-17T13:00:49.300Z,100797.87
2023-03-17T13:03:24.599Z,100792.11
2023-03-17T13:06:02.198Z,100790.02
2023-03-17T13:08:58.245Z,100786.95
2023-03-17T13:11:47.445Z,100781.21
2023-03-17T13:14:28.657Z,100785.92
2023-03-17T13:17:36.318Z,100782.95
2023-03-17T13:20:18.432Z,100781.76
2023-03-17T13:23:05.165Z,100775.71
2023-03-17T13:25:53.841Z,100784.25
2023-03-17T13:28:42.020Z,100785.84
2023-03-17T13:31:30.829Z,100777.77
2023-03-17T13:34:16.348Z,100764.00
2023-03-17T13:36:55.599Z,100769.20
2023-03-17T13:40:11.175Z,100753.77
2023-03-17T13:43:07.713Z,100748.70
2023-03-17T13:45:48.898Z,100762.56
2023-03-17T13:48:36.549Z,100767.30
2023-03-17T13:51:18.791Z,100752.59
2023-03-17T13:53:59.634Z,100755.79
2023-03-17T13:56:30.603Z,100743.60
2023-03-17T13:59:13.359Z,100753.19
2023-03-17T14:01:47.170Z,100751.82
2023-03-17T14:04:22.906Z,100742.10
2023-03-17T14:07:20.993Z,100749.23
2023-03-17T14:09:59.229Z,100740.80
2023-03-17T14:12:34.082Z,100739.23
2023-03-17T14:15:08.369Z,100737.45
2023-03-17T14:17:49.799Z,100717.61
2023-03-17T14:20:30.092Z,100723.92
2023-03-17T14:23:01.490Z,100732.55
2023-03-17T14:25:34.722Z,100715.05
2023-03-17T14:28:18.150Z,100729.59
2023-03-17T14:30:54.485Z,100703.45
2023-03-17T14:33:25.741Z,100708.95
2023-03-17T14:35:57.504Z,100704.23
2023-03-17T14:38:27.163Z,100702.13
2023-03-17T14:41:04.467Z,100698.88
2023-03-17T14:43:32.068Z,100694.44
2023-03-17T14:46:04.978Z,100687.44
2023-03-17T14:48:35.499Z,100676.65
2023-03-17T14:51:07.020Z,100691.29
2023-03-17T14:53:35.659Z,100702.31
2023-03-17T14:56:10.921Z,100710.71
2023-03-17T14:58:47.931Z,100712.36
2023-03-17T15:01:22.010Z,100706.33
2023-03-17T15:04:06.144Z,100705.50
2023-03-17T15:06:52.977Z,100688.11
2023-03-17T15:09:27.259Z,100689.39
2023-03-17T15:11:59.270Z,100692.03
2023-03-17T15:14:33.000Z,100693.32
2023-03-17T15:17:03.186Z,100686.51
2023-03-17T15:19:42.802Z,100676.17
2023-03-17T15:22:26.406Z,100672.55
2023-03-17T15:25:02.463Z,100686.26
2023-03-17T15:27:44.815Z,100672.98
2023-03-17T15:30:16.086Z,100670.54
2023-03-17T15:32:44.026Z,100667.43
2023-03-17T15:35:25.182Z,100668.82
2023-03-17T15:37:52.649Z,100667.30
2023-03-17T15:40:20.784Z,100669.41
2023-03-17T15:42:48.281Z,100685.23
2023-03-17T15:45:19.637Z,100687.89
2023-03-17T15:48:10.662Z,100702.20
2023-03-17T15:50:50.707Z,100688.44
2023-03-17T15:53:23.638Z,100687.27
2023-03-17T15:55:51.330Z,100686.32
2023-03-17T15:58:27.427Z,100682.92
2023-03-17T16:00:59.781Z,100681.08
2023-03-17T16:03:34.039Z,100686.14
2023-03-17T16:06:12.395Z,100684.31
2023-03-17T16:08:42.848Z,100681.94
2023-03-17T16:11:17.896Z,100693.23
2023-03-17T16:13:45.323Z,100698.44
2023-03-17T16:16:21.534Z,100700.02
2023-03-17T16:18:53.623Z,100689.86
2023-03-17T16:21:21.653Z,100692.41
2023-03-17T16:24:17.317Z,100679.98
2023-03-17T16:27:03.992Z,100683.83
2023-03-17T16:29:31.512Z,100681.98
2023-03-17T16:32:16.064Z,100687.05
2023-03-17T16:34:53.609Z,100679.67
2023-03-17T16:37:21.223Z,100682.50
2023-03-17T16:40:22.801Z,100682.90
2023-03-17T16:42:53.421Z,100698.48
2023-03-17T16:45:33.254Z,100693.86
2023-03-17T16:48:01.935Z,100691.30
2023-03-17T16:50:39.247Z,100688.94
2023-03-17T16:53:27.632Z,100694.85
2023-03-17T16:56:04.612Z,100691.23
2023-03-17T16:58:52.585Z,100696.30
2023-03-17T17:01:40.073Z,100702.70
2023-03-17T17:04:12.048Z,100699.62
2023-03-17T17:06:42.595Z,100698.78
2023-03-17T17:09:17.187Z,100699.33
2023-03-17T17:11:58.708Z,100695.20
2023-03-17T17:14:38.843Z,100696.39
2023-03-17T17:17:06.831Z,100690.20
2023-03-17T17:19:54.374Z,100686.95
2023-03-17T17:22:41.820Z,100684.22
2023-03-17T17:25:13.134Z,100678.02
2023-03-17T17:27:45.954Z,100676.15
2023-03-17T17:30:34.390Z,100675.14
2023-03-17T17:33:05.722Z,100679.30
2023-03-17T17:35:34.505Z,100686.06
2023-03-17T17:38:02.637Z,100689.73
2023-03-17T17:40:31.104Z,100695.47
2023-03-17T17:43:02.141Z,100695.33
2023-03-17T17:45:39.582Z,100688.96
2023-03-17T17:48:22.606Z,100697.80
2023-03-17T17:50:49.955Z,100691.97
2023-03-17T17:53:37.745Z,100691.13
2023-03-17T17:56:05.273Z,100697.70
2023-03-17T17:58:37.970Z,100695.31
2023-03-17T18:01:18.880Z,100699.66
2023-03-17T18:04:06.715Z,100699.00
2023-03-17T18:06:44.044Z,100696.77
2023-03-17T18:09:12.681Z,100697.27
2023-03-17T18:11:51.461Z,100699.01
2023-03-17T18:14:30.103Z,100691.10
2023-03-17T18:17:00.599Z,100700.27
2023-03-17T18:20:23.938Z,100696.84
2023-03-17T18:23:05.064Z,100700.45
2023-03-17T18:25:32.632Z,100698.91
2023-03-17T18:28:01.615Z,100698.41
2023-03-17T18:30:48.235Z,100700.34
2023-03-17T18:33:27.839Z,100696.91
2023-03-17T18:36:00.605Z,100697.44
2023-03-17T18:38:48.444Z,100693.65
2023-03-17T18:41:36.594Z,100697.96
2023-03-17T18:44:03.920Z,100694.88
2023-03-17T18:46:36.557Z,100697.83
2023-03-17T18:49:27.305Z,100694.75
2023-03-17T18:52:15.476Z,100699.41
2023-03-17T18:55:08.629Z,100696.66
2023-03-17T18:57:48.945Z,100704.58
2023-03-17T19:00:20.310Z,100715.27
2023-03-17T19:02:56.070Z,100704.77
2023-03-17T19:05:24.799Z,100707.02
2023-03-17T19:07:55.371Z,100706.34
2023-03-17T19:10:23.078Z,100705.30
2023-03-17T19:13:04.661Z,100702.90
2023-03-17T19:15:42.750Z,100699.13
2023-03-17T19:18:10.315Z,100699.31
2023-03-17T19:20:38.071Z,100695.86
2023-03-17T19:23:08.053Z,100694.83
2023-03-17T19:25:38.067Z,100698.45
2023-03-17T19:28:14.625Z,100695.16
2023-03-17T19:30:45.725Z,100692.07
2023-03-17T19:33:13.258Z,100685.54
2023-03-17T19:36:03.098Z,100688.65
2023-03-17T19:38:36.468Z,100676.42
2023-03-17T19:41:07.911Z,100677.30
2023-03-17T19:43:55.295Z,100674.88
2023-03-17T19:46:41.555Z,100678.33
2023-03-17T19:49:29.234Z,100681.11
2023-03-17T19:52:15.721Z,100682.85
2023-03-17T19:54:50.664Z,100693.54
2023-03-17T19:57:20.960Z,100679.06
2023-03-17T20:00:00.908Z,100679.05
2023-03-17T20:02:31.616Z,100680.95
2023-03-17T20:05:11.462Z,100681.48
2023-03-17T20:07:49.269Z,100676.14
2023-03-17T20:10:16.624Z,100680.45
2023-03-17T20:12:45.812Z,100672.88
2023-03-17T20:15:14.293Z,100687.02
2023-03-17T20:17:44.686Z,100673.76
2023-03-17T20:20:16.307Z,100681.85
2023-03-17T20:22:53.562Z,100684.77
2023-03-17T20:25:21.907Z,100682.02
2023-03-17T20:27:57.787Z,100682.35
2023-03-17T20:30:39.634Z,100680.30
2023-03-17T20:33:08.473Z,100680.48
2023-03-17T20:35:39.259Z,100685.14
2023-03-17T20:38:27.123Z,100676.70
2023-03-17T20:41:08.370Z,100674.44
2023-03-17T20:43:37.641Z,100679.27
2023-03-17T20:46:18.672Z,100681.86
2023-03-17T20:48:48.296Z,100671.36
2023-03-17T20:51:36.807Z,100676.17
2023-03-17T20:54:05.398Z,100672.74
2023-03-17T20:56:44.310Z,100668.10
2023-03-17T20:59:13.773Z,100663.63
2023-03-17T21:01:42.741Z,100671.70
2023-03-17T21:04:21.378Z,100662.39
2023-03-17T21:06:56.238Z,100660.15
2023-03-17T21:09:23.846Z,100649.31
2023-03-17T21:12:15.067Z,100657.75
2023-03-17T21:15:02.395Z,100652.08
2023-03-17T21:17:32.751Z,100652.08
2023-03-17T21:19:59.955Z,100654.83
2023-03-17T21:22:27.790Z,100655.01
2023-03-17T21:24:55.633Z,100656.73
2023-03-17T21:27:23.277Z,100663.09
2023-03-17T21:29:51.411Z,100658.98
2023-03-17T21:32:31.935Z,100655.19
2023-03-17T21:35:11.387Z,100654.50
2023-03-17T21:37:58.996Z,100662.41
2023-03-17T21:40:37.713Z,100656.90
2023-03-17T21:43:05.784Z,100672.21
2023-03-17T21:45:33.288Z,100661.73
2023-03-17T21:48:21.076Z,100677.39
2023-03-17T21:50:58.536Z,100670.67
2023-03-17T21:53:42.571Z,100678.90
2023-03-17T21:56:12.702Z,100674.27
2023-03-17T21:58:44.827Z,100680.29
2023-03-17T22:01:21.980Z,100684.08
2023-03-17T22:03:49.524Z,100672.02
2023-03-17T22:06:36.980Z,100672.20
2023-03-17T22:09:04.512Z,100672.72
2023-03-17T22:11:51.897Z,100674.77
2023-03-17T22:14:39.478Z,100682.17
2023-03-17T22:17:17.612Z,100668.41
2023-03-17T22:19:45.374Z,100671.34
2023-03-17T22:22:23.069Z,100663.60
2023-03-17T22:25:11.428Z,100661.19
2023-03-17T22:27:58.738Z,100645.02
2023-03-17T22:30:44.789Z,100660.49
2023-03-17T22:33:33.193Z,100667.17
2023-03-17T22:36:10.919Z,100657.03
2023-03-17T22:38:47.497Z,100668.73
2023-03-17T22:41:29.117Z,100657.71
2023-03-17T22:43:57.518Z,100656.17
2023-03-17T22:46:37.845Z,100664.26
2023-03-17T22:49:08.952Z,100656.00
2023-03-17T22:51:56.424Z,100656.34
2023-03-17T22:54:37.553Z,100667.02
2023-03-17T22:57:23.825Z,100655.49
2023-03-17T22:59:55.304Z,100651.52
2023-03-17T23:02:34.922Z,100655.99
2023-03-17T23:05:05.687Z,100653.25
2023-03-17T23:07:50.698Z,100655.14
2023-03-17T23:10:24.809Z,100653.42
2023-03-17T23:12:52.752Z,100638.45
2023-03-17T23:15:21.229Z,100635.18
2023-03-17T23:17:52.103Z,100638.28
2023-03-17T23:20:24.765Z,100640.86
2023-03-17T23:22:54.861Z,100636.57
2023-03-17T23:25:25.852Z,100656.35
2023-03-17T23:27:53.269Z,100649.98
2023-03-17T23:30:23.422Z,100634.33
2023-03-17T23:33:01.426Z,100643.96
2023-03-17T23:35:41.847Z,100620.74
2023-03-17T23:38:09.782Z,100623.48
2023-03-17T23:40:58.429Z,100623.11
2023-03-17T23:43:46.904Z,100616.58
2023-03-17T23:46:34.784Z,100626.21
2023-03-17T23:49:12.326Z,100625.70
2023-03-17T23:51:50.965Z,100619.69
2023-03-17T23:54:28.001Z,100611.77
2023-03-17T23:57:05.258Z,100617.96
2023-03-17T23:59:32.663Z,100621.73
